Time;durP1;ratioP1;P1;durP2;ratioP2;P2;SDS_P1;SDS_P2;PMS_P1;PMS_P2;Temp;Humidity;BMP_temperature;BMP_pressure;BME280_temperature;BME280_humidity;BME280_pressure;Samples;Min_cycle;Max_cycle;Signal;HPM_P1;HPM_P2
2022/06/10 00:01:58;;;;;;;4.72;2.00;;;15.20;99.90;;;;;;5059217;28;20020;-80
2022/06/10 00:04:23;;;;;;;6.55;2.35;;;15.20;99.90;;;;;;5059642;28;20048;-80
2022/06/10 00:06:49;;;;;;;7.28;2.67;;;15.20;99.90;;;;;;5048108;28;20227;-79
2022/06/10 00:09:15;;;;;;;8.80;3.10;;;15.20;99.90;;;;;;5046891;28;20111;-78
2022/06/10 00:11:41;;;;;;;9.35;2.65;;;15.20;99.90;;;;;;5050025;28;20588;-77
2022/06/10 00:14:07;;;;;;;8.38;3.08;;;15.20;99.90;;;;;;5087279;28;20020;-77
2022/06/10 00:16:33;;;;;;;8.48;2.72;;;15.20;99.90;;;;;;5050412;28;20048;-77
2022/06/10 00:18:59;;;;;;;6.20;2.42;;;15.20;99.90;;;;;;5053591;28;20036;-78
2022/06/10 00:21:25;;;;;;;6.13;2.40;;;15.10;99.90;;;;;;5066762;28;20382;-78
2022/06/10 00:23:50;;;;;;;6.47;2.70;;;15.10;99.90;;;;;;5081689;28;20669;-77
2022/06/10 00:26:17;;;;;;;6.22;2.60;;;15.10;99.90;;;;;;5063952;28;20028;-76
2022/06/10 00:28:45;;;;;;;9.60;2.10;;;15.00;99.90;;;;;;5051041;28;20025;-77
2022/06/10 00:31:12;;;;;;;3.83;1.73;;;15.10;99.90;;;;;;5049631;28;20085;-79
2022/06/10 00:33:40;;;;;;;7.43;1.67;;;15.00;99.90;;;;;;5070137;28;20371;-79
2022/06/10 00:36:07;;;;;;;5.57;2.00;;;15.00;99.90;;;;;;5060593;28;20028;-83
2022/06/10 00:38:33;;;;;;;4.35;1.38;;;15.00;99.90;;;;;;5053029;28;20032;-79
2022/06/10 00:41:00;;;;;;;4.55;1.35;;;15.00;99.90;;;;;;5063027;28;20155;-80
2022/06/10 00:43:29;;;;;;;6.38;1.77;;;15.00;99.90;;;;;;5070918;28;20051;-80
2022/06/10 00:45:55;;;;;;;4.10;1.42;;;15.00;99.90;;;;;;5059796;28;20025;-80
2022/06/10 00:48:32;;;;;;;5.30;1.90;;;15.00;99.90;;;;;;5052070;28;20047;-80
2022/06/10 00:51:03;;;;;;;7.82;2.63;;;15.00;99.90;;;;;;5048737;28;20192;-81
2022/06/10 00:53:34;;;;;;;7.32;3.28;;;15.00;99.90;;;;;;5046997;28;20071;-80
2022/06/10 00:56:04;;;;;;;8.27;3.35;;;15.00;99.90;;;;;;5058986;28;20029;-79
2022/06/10 00:58:56;;;;;;;6.68;2.70;;;15.00;99.90;;;;;;5051453;28;20028;-80
2022/06/10 01:01:22;;;;;;;10.20;3.50;;;15.00;99.90;;;;;;5047546;28;20066;-79
2022/06/10 01:03:50;;;;;;;8.45;3.75;;;15.00;99.90;;;;;;5068730;28;20556;-78
2022/06/10 01:06:15;;;;;;;11.10;3.47;;;14.90;99.90;;;;;;5051164;28;20463;-78
2022/06/10 01:08:42;;;;;;;7.85;2.80;;;15.00;99.90;;;;;;5069263;28;20028;-82
2022/06/10 01:11:10;;;;;;;8.25;3.25;;;15.00;99.90;;;;;;5065822;28;20039;-79
2022/06/10 01:13:51;;;;;;;7.00;3.17;;;15.00;99.90;;;;;;5067805;28;20035;-78
2022/06/10 01:16:34;;;;;;;8.60;3.22;;;15.00;99.90;;;;;;5063886;28;20082;-81
2022/06/10 01:19:09;;;;;;;8.13;3.30;;;15.00;99.90;;;;;;5046909;28;20053;-79
2022/06/10 01:21:58;;;;;;;6.53;2.30;;;15.10;99.90;;;;;;5020314;28;20037;-84
2022/06/10 01:24:44;;;;;;;6.82;2.53;;;15.10;99.90;;;;;;4976486;28;20053;-78
2022/06/10 01:30:31;;;;;;;5.00;2.60;;;15.10;99.90;;;;;;4983940;28;20041;-79
2022/06/10 01:33:24;;;;;;;8.93;3.40;;;15.10;99.90;;;;;;4985751;28;20045;-80
2022/06/10 01:36:03;;;;;;;6.57;2.25;;;15.10;99.90;;;;;;4985083;28;20038;-79
2022/06/10 01:38:39;;;;;;;7.70;2.45;;;15.10;99.90;;;;;;4985938;28;20552;-81
2022/06/10 01:41:29;;;;;;;6.20;2.53;;;15.10;99.90;;;;;;4986050;28;20030;-83
2022/06/10 01:44:13;;;;;;;7.72;2.83;;;15.10;99.90;;;;;;4987016;28;20039;-88
2022/06/10 01:46:48;;;;;;;9.82;3.15;;;15.10;99.90;;;;;;4986621;28;20080;-84
2022/06/10 01:49:26;;;;;;;6.72;2.65;;;15.20;99.90;;;;;;4985708;28;20038;-81
2022/06/10 01:52:14;;;;;;;10.93;2.88;;;15.10;99.90;;;;;;4984491;28;20022;-81
2022/06/10 01:54:52;;;;;;;11.32;4.15;;;15.10;99.90;;;;;;4986130;28;20115;-84
2022/06/10 01:57:33;;;;;;;14.98;4.38;;;15.10;99.90;;;;;;4985333;28;20551;-80
2022/06/10 02:00:10;;;;;;;19.33;6.00;;;15.10;99.90;;;;;;4985409;28;20037;-86
2022/06/10 02:02:41;;;;;;;15.02;6.00;;;15.20;99.90;;;;;;5043844;28;20720;-80
2022/06/10 02:05:16;;;;;;;22.98;7.30;;;15.10;99.90;;;;;;5011715;28;20144;-84
2022/06/10 02:07:46;;;;;;;18.95;7.43;;;15.20;99.90;;;;;;5044425;28;20025;-83
2022/06/10 02:10:23;;;;;;;22.35;7.32;;;15.10;99.90;;;;;;5021586;28;20375;-81
2022/06/10 02:12:55;;;;;;;20.90;6.80;;;15.10;99.90;;;;;;5030515;28;20459;-80
2022/06/10 02:15:29;;;;;;;18.80;6.53;;;15.10;99.90;;;;;;5035354;28;20110;-79
2022/06/10 02:18:08;;;;;;;22.73;6.95;;;15.20;99.90;;;;;;5046532;28;20037;-81
2022/06/10 02:20:35;;;;;;;;;;;15.20;99.90;;;;;;5027706;28;20025;-79
2022/06/10 02:23:05;;;;;;;29.23;7.65;;;15.10;99.90;;;;;;5031956;28;19905;-77
2022/06/10 02:25:35;;;;;;;;;;;15.20;99.90;;;;;;5012971;28;20507;-79
2022/06/10 02:28:03;;;;;;;;;;;15.20;99.90;;;;;;5049287;28;19909;-86
2022/06/10 02:30:34;;;;;;;20.92;6.47;;;15.10;99.90;;;;;;5044340;28;19974;-82
2022/06/10 02:33:00;;;;;;;25.15;7.28;;;15.10;99.90;;;;;;5045355;28;20056;-80
2022/06/10 02:35:35;;;;;;;27.27;7.82;;;15.20;99.90;;;;;;5042236;28;20163;-81
2022/06/10 02:38:06;;;;;;;33.85;7.70;;;15.20;99.90;;;;;;5043766;28;20089;-81
2022/06/10 02:40:59;;;;;;;27.92;7.13;;;15.20;99.90;;;;;;5042300;28;20057;-81
2022/06/10 02:43:51;;;;;;;28.52;7.80;;;15.10;99.90;;;;;;5036715;28;20053;-78
2022/06/10 02:46:40;;;;;;;29.77;7.53;;;15.20;99.90;;;;;;5014958;28;20484;-83
2022/06/10 02:49:18;;;;;;;24.90;7.28;;;15.10;99.90;;;;;;5027904;28;20043;-80
2022/06/10 02:51:45;;;;;;;31.17;7.85;;;15.20;99.90;;;;;;5038965;28;20048;-79
2022/06/10 02:54:35;;;;;;;27.00;7.93;;;15.10;99.90;;;;;;5039193;28;20039;-78
2022/06/10 02:57:17;;;;;;;27.30;7.75;;;15.10;99.90;;;;;;5026783;28;20056;-77
2022/06/10 03:02:38;;;;;;;26.17;7.80;;;15.20;99.90;;;;;;5042951;28;20044;-79
2022/06/10 03:05:26;;;;;;;27.50;7.70;;;15.10;99.90;;;;;;5028150;28;20129;-77
2022/06/10 03:08:35;;;;;;;29.67;8.10;;;15.10;99.90;;;;;;5045408;28;20056;-77
2022/06/10 03:11:25;;;;;;;23.00;7.70;;;15.10;99.90;;;;;;5041221;28;20033;-78
2022/06/10 03:14:06;;;;;;;33.38;7.78;;;15.10;99.90;;;;;;5027821;28;20076;-78
2022/06/10 03:17:06;;;;;;;31.67;8.63;;;15.10;99.90;;;;;;5029044;28;20454;-77
2022/06/10 03:19:35;;;;;;;26.05;7.80;;;15.10;99.90;;;;;;5058466;28;20064;-78
2022/06/10 03:22:16;;;;;;;30.42;8.43;;;15.10;99.90;;;;;;5067603;28;20405;-77
2022/06/10 03:24:44;;;;;;;25.73;8.40;;;15.10;99.90;;;;;;5062006;28;20036;-77
2022/06/10 03:27:16;;;;;;;32.58;9.02;;;15.10;99.90;;;;;;5049739;28;20017;-78
2022/06/10 03:29:44;;;;;;;31.85;8.85;;;15.10;99.90;;;;;;5047045;28;20025;-79
2022/06/10 03:32:18;;;;;;;28.77;8.00;;;15.10;99.90;;;;;;5059262;28;20033;-79
2022/06/10 03:34:49;;;;;;;29.05;8.85;;;15.10;99.90;;;;;;5058609;28;20032;-77
2022/06/10 03:37:17;;;;;;;29.80;8.52;;;15.10;99.90;;;;;;5059043;28;20463;-77
2022/06/10 03:39:53;;;;;;;28.13;7.95;;;15.10;99.90;;;;;;5050953;28;20031;-78
2022/06/10 03:42:20;;;;;;;30.77;9.18;;;15.10;99.90;;;;;;5067073;28;20036;-77
2022/06/10 03:44:49;;;;;;;35.75;9.20;;;15.10;99.90;;;;;;5067678;28;20454;-78
2022/06/10 03:47:20;;;;;;;29.90;8.57;;;15.10;99.90;;;;;;5048546;28;20153;-78
2022/06/10 03:50:15;;;;;;;21.92;7.65;;;15.10;99.90;;;;;;5060437;28;20017;-79
2022/06/10 03:52:42;;;;;;;24.60;7.63;;;15.10;99.90;;;;;;5035882;28;20880;-78
2022/06/10 03:55:09;;;;;;;30.95;7.85;;;15.10;99.90;;;;;;5067207;28;20411;-78
2022/06/10 03:57:36;;;;;;;31.42;7.75;;;15.10;99.90;;;;;;5060649;28;20033;-79
2022/06/10 04:00:04;;;;;;;23.85;7.18;;;15.10;99.90;;;;;;5053028;28;20027;-78
2022/06/10 04:02:29;;;;;;;30.23;7.95;;;15.10;99.90;;;;;;5069772;28;20052;-78
2022/06/10 04:04:55;;;;;;;32.97;8.40;;;15.10;99.90;;;;;;5075087;28;20056;-79
2022/06/10 04:07:21;;;;;;;25.42;7.15;;;15.10;99.90;;;;;;5073874;28;20036;-76
2022/06/10 04:09:48;;;;;;;23.38;7.43;;;15.10;99.90;;;;;;5085545;28;20029;-77
2022/06/10 04:12:15;;;;;;;22.13;7.00;;;15.10;99.90;;;;;;5038690;28;20383;-79
2022/06/10 04:14:42;;;;;;;25.52;6.88;;;15.10;99.90;;;;;;5066385;28;20610;-79
2022/06/10 04:17:09;;;;;;;20.95;6.75;;;15.10;99.90;;;;;;5058085;28;20045;-76
2022/06/10 04:19:34;;;;;;;25.77;7.63;;;15.20;99.90;;;;;;5050575;28;20036;-79
2022/06/10 04:22:00;;;;;;;30.15;8.02;;;15.20;99.90;;;;;;5046569;28;20024;-78
2022/06/10 04:24:26;;;;;;;27.05;7.07;;;15.20;99.90;;;;;;5064399;28;20075;-78
2022/06/10 04:26:53;;;;;;;24.65;7.78;;;15.20;99.90;;;;;;5058646;28;20109;-81
2022/06/10 04:29:19;;;;;;;21.92;7.13;;;15.20;99.90;;;;;;5069946;28;20050;-78
2022/06/10 04:31:45;;;;;;;19.85;6.63;;;15.20;99.90;;;;;;5066228;28;20076;-78
2022/06/10 04:34:12;;;;;;;21.52;7.00;;;15.30;99.90;;;;;;5052276;28;20062;-77
2022/06/10 04:36:38;;;;;;;26.15;7.70;;;15.20;99.90;;;;;;5075874;28;20020;-79
2022/06/10 04:39:03;;;;;;;24.33;7.68;;;15.20;99.90;;;;;;5068691;28;20020;-78
2022/06/10 04:41:29;;;;;;;24.00;7.68;;;15.30;99.90;;;;;;5064991;28;20082;-79
2022/06/10 04:43:55;;;;;;;19.48;6.63;;;15.30;99.90;;;;;;5061940;28;20399;-80
2022/06/10 04:46:31;;;;;;;24.63;7.20;;;15.30;99.90;;;;;;5067899;28;20056;-78
2022/06/10 04:48:57;;;;;;;18.98;6.30;;;15.30;99.90;;;;;;5044867;28;20429;-78
2022/06/10 04:51:23;;;;;;;23.25;7.10;;;15.30;99.90;;;;;;5068450;28;20043;-78
2022/06/10 04:53:49;;;;;;;21.50;7.20;;;15.30;99.90;;;;;;5068633;28;20125;-78
2022/06/10 04:56:15;;;;;;;21.48;6.40;;;15.30;99.90;;;;;;5053007;28;20029;-81
2022/06/10 04:58:41;;;;;;;17.38;6.85;;;15.20;99.90;;;;;;5068428;28;20032;-79
2022/06/10 05:01:06;;;;;;;24.30;8.65;;;15.20;99.90;;;;;;5061865;28;20116;-77
2022/06/10 05:03:32;;;;;;;26.00;8.00;;;15.20;99.90;;;;;;5068278;28;20035;-77
2022/06/10 05:05:58;;;;;;;19.23;7.05;;;15.20;99.90;;;;;;5064033;28;20433;-80
2022/06/10 05:08:24;;;;;;;19.95;6.80;;;15.20;99.90;;;;;;5067503;28;20029;-82
2022/06/10 05:10:50;;;;;;;19.65;6.25;;;15.20;99.90;;;;;;5040393;28;20032;-82
2022/06/10 05:13:20;;;;;;;17.52;5.35;;;15.20;99.90;;;;;;5051778;28;20038;-79
2022/06/10 05:15:47;;;;;;;19.60;6.82;;;15.30;99.90;;;;;;5045118;28;20103;-80
2022/06/10 05:18:14;;;;;;;17.83;5.65;;;15.30;99.90;;;;;;5029119;28;20670;-79
2022/06/10 05:20:42;;;;;;;17.65;5.30;;;15.30;99.90;;;;;;5024901;28;20037;-80
2022/06/10 05:23:11;;;;;;;13.82;5.97;;;15.30;99.90;;;;;;5039406;28;20516;-79
2022/06/10 05:25:37;;;;;;;16.20;4.75;;;15.30;99.90;;;;;;5043472;28;20116;-79
2022/06/10 05:28:04;;;;;;;17.67;6.13;;;15.40;99.90;;;;;;5035532;28;20048;-80
2022/06/10 05:30:32;;;;;;;13.90;4.40;;;15.40;99.90;;;;;;5037719;28;20029;-79
2022/06/10 05:32:59;;;;;;;15.73;5.20;;;15.40;99.90;;;;;;5031643;28;20430;-79
2022/06/10 05:35:25;;;;;;;15.38;4.57;;;15.40;99.90;;;;;;5029513;28;20625;-79
2022/06/10 05:37:51;;;;;;;15.40;5.00;;;15.50;99.90;;;;;;5044751;28;20112;-80
2022/06/10 05:40:18;;;;;;;15.70;4.90;;;15.40;99.90;;;;;;5035122;28;20029;-79
2022/06/10 05:42:44;;;;;;;13.98;3.65;;;15.50;99.90;;;;;;5034628;28;20047;-80
2022/06/10 05:45:14;;;;;;;15.63;4.53;;;15.50;99.90;;;;;;5056625;28;20040;-78
2022/06/10 05:47:40;;;;;;;;;;;15.50;99.90;;;;;;5029070;28;20079;-79
2022/06/10 05:50:11;;;;;;;17.77;4.50;;;15.50;99.90;;;;;;5046363;28;19909;-78
2022/06/10 05:52:37;;;;;;;17.13;4.93;;;15.50;99.90;;;;;;5044881;28;20111;-78
2022/06/10 05:55:06;;;;;;;13.90;4.40;;;15.60;99.90;;;;;;5062878;28;20108;-78
2022/06/10 05:57:31;;;;;;;13.20;4.45;;;15.60;99.90;;;;;;5048320;28;20029;-81
2022/06/10 05:59:58;;;;;;;16.30;4.43;;;15.60;99.90;;;;;;5046603;28;20372;-82
2022/06/10 06:02:25;;;;;;;17.85;5.15;;;15.60;99.90;;;;;;5036788;28;20030;-80
2022/06/10 06:04:52;;;;;;;18.27;5.03;;;15.70;99.90;;;;;;5044875;28;20033;-82
2022/06/10 06:07:23;;;;;;;14.07;4.03;;;15.70;99.90;;;;;;5028196;28;20199;-79
2022/06/10 06:09:49;;;;;;;14.95;4.00;;;15.70;99.90;;;;;;5025274;28;20029;-82
2022/06/10 06:12:15;;;;;;;10.23;3.50;;;15.70;99.90;;;;;;5039945;28;20086;-80
2022/06/10 06:14:41;;;;;;;11.82;3.70;;;15.60;99.90;;;;;;5034717;28;20106;-81
2022/06/10 06:17:07;;;;;;;9.70;3.63;;;15.60;99.90;;;;;;5055099;28;20479;-81
2022/06/10 06:19:33;;;;;;;10.50;3.85;;;15.60;99.90;;;;;;5063523;28;20052;-82
2022/06/10 06:21:59;;;;;;;8.93;3.35;;;15.60;99.90;;;;;;5065072;28;20442;-81
2022/06/10 06:24:26;;;;;;;13.70;4.25;;;15.60;99.90;;;;;;5057536;28;20040;-80
2022/06/10 06:26:52;;;;;;;7.82;3.38;;;15.60;99.90;;;;;;5064109;28;20423;-85
2022/06/10 06:29:19;;;;;;;10.02;4.72;;;15.50;99.90;;;;;;5050323;28;20245;-81
2022/06/10 06:31:45;;;;;;;8.57;3.72;;;15.50;99.90;;;;;;5066010;28;20036;-82
2022/06/10 06:34:11;;;;;;;9.82;4.57;;;15.50;99.90;;;;;;5062886;28;20035;-81
2022/06/10 06:36:44;;;;;;;10.32;4.35;;;15.50;99.90;;;;;;5065567;28;20434;-82
2022/06/10 06:39:10;;;;;;;9.00;4.25;;;15.50;99.90;;;;;;5066058;28;20111;-83
2022/06/10 06:41:35;;;;;;;8.73;3.67;;;15.60;99.90;;;;;;5063758;28;20177;-89
2022/06/10 06:44:04;;;;;;;8.73;3.65;;;15.70;99.90;;;;;;5066936;28;20090;-79
2022/06/10 06:46:32;;;;;;;10.30;3.95;;;15.70;99.90;;;;;;5052776;28;20035;-79
2022/06/10 06:48:58;;;;;;;6.20;3.17;;;15.80;99.90;;;;;;5066693;28;20534;-82
2022/06/10 06:51:24;;;;;;;7.47;2.97;;;15.80;99.90;;;;;;5066695;28;20031;-83
2022/06/10 06:53:50;;;;;;;8.15;3.70;;;15.80;99.90;;;;;;5068379;28;20469;-82
2022/06/10 06:56:15;;;;;;;9.88;3.72;;;15.70;99.90;;;;;;5066974;28;20028;-80
2022/06/10 06:58:41;;;;;;;6.32;3.60;;;15.80;99.90;;;;;;5068323;28;20032;-79
2022/06/10 07:01:07;;;;;;;9.50;4.40;;;15.70;99.90;;;;;;5065337;28;20434;-79
2022/06/10 07:03:32;;;;;;;12.82;4.88;;;15.80;99.90;;;;;;5046464;28;20043;-79
2022/06/10 07:05:58;;;;;;;8.80;3.85;;;15.80;99.90;;;;;;5045047;28;20053;-81
2022/06/10 07:08:31;;;;;;;14.35;5.03;;;15.90;99.90;;;;;;5045271;28;20040;-82
2022/06/10 07:10:58;;;;;;;15.13;5.10;;;15.90;99.90;;;;;;5055443;28;20016;-82
2022/06/10 07:13:24;;;;;;;14.43;5.47;;;16.00;99.90;;;;;;5053771;28;20040;-83
2022/06/10 07:15:50;;;;;;;16.75;5.65;;;16.00;99.90;;;;;;5041060;28;20029;-80
2022/06/10 07:18:17;;;;;;;15.02;5.75;;;16.00;99.90;;;;;;5039415;28;20045;-83
2022/06/10 07:20:44;;;;;;;18.58;5.90;;;16.10;99.90;;;;;;5058447;28;20021;-83
2022/06/10 07:23:09;;;;;;;17.83;5.20;;;16.10;99.90;;;;;;5061459;28;20043;-84
2022/06/10 07:25:35;;;;;;;19.33;6.20;;;16.20;99.90;;;;;;5072228;28;20036;-86
2022/06/10 07:28:01;;;;;;;16.17;6.25;;;16.30;99.90;;;;;;5053519;28;20025;-81
2022/06/10 07:30:30;;;;;;;20.08;5.93;;;16.40;99.90;;;;;;5072010;28;20024;-81
2022/06/10 07:32:57;;;;;;;19.43;6.60;;;16.40;99.90;;;;;;5076204;28;20032;-82
2022/06/10 07:35:23;;;;;;;17.45;6.15;;;16.50;99.90;;;;;;5061982;28;20029;-82
2022/06/10 07:37:50;;;;;;;19.70;6.60;;;16.70;99.90;;;;;;5071012;28;20021;-81
2022/06/10 07:43:04;;;;;;;21.38;5.90;;;16.70;99.90;;;;;;5072260;28;20503;-82
2022/06/10 07:45:31;;;;;;;16.50;5.35;;;16.70;99.90;;;;;;5058306;28;20044;-85
2022/06/10 07:47:57;;;;;;;16.27;5.18;;;16.60;99.90;;;;;;5070702;28;20059;-81
2022/06/10 07:50:23;;;;;;;13.25;4.95;;;16.60;99.90;;;;;;5070612;28;20060;-85
2022/06/10 07:52:50;;;;;;;16.80;5.60;;;16.60;99.90;;;;;;5053392;28;20013;-84
2022/06/10 07:55:17;;;;;;;18.17;4.68;;;16.60;99.90;;;;;;5070379;28;20033;-79
2022/06/10 07:57:43;;;;;;;18.92;6.18;;;16.70;99.90;;;;;;5071022;28;20032;-79
2022/06/10 08:00:12;;;;;;;16.50;5.85;;;16.70;99.90;;;;;;5067749;28;20535;-80
2022/06/10 08:02:39;;;;;;;25.58;7.07;;;16.70;99.90;;;;;;5061553;28;20019;-81
2022/06/10 08:05:07;;;;;;;20.73;7.22;;;16.60;99.90;;;;;;5065261;28;20033;-79
2022/06/10 08:07:33;;;;;;;19.95;5.82;;;16.60;99.90;;;;;;5065142;28;20031;-78
2022/06/10 08:09:59;;;;;;;15.90;5.25;;;16.80;99.90;;;;;;5080077;28;20450;-78
2022/06/10 08:12:25;;;;;;;18.35;5.28;;;16.90;99.90;;;;;;5066083;28;20112;-84
2022/06/10 08:14:51;;;;;;;18.15;5.15;;;17.10;99.90;;;;;;5071278;28;20040;-78
2022/06/10 08:17:16;;;;;;;16.67;5.78;;;17.10;99.90;;;;;;5061998;28;21565;-77
2022/06/10 08:19:42;;;;;;;19.10;5.13;;;17.00;99.90;;;;;;5052508;28;20463;-77
2022/06/10 08:24:53;;;;;;;22.00;5.30;;;17.20;99.90;;;;;;5056644;28;20067;-77
2022/06/10 08:27:19;;;;;;;18.83;5.43;;;17.40;99.90;;;;;;5071079;28;20447;-80
2022/06/10 08:29:45;;;;;;;26.83;5.82;;;17.40;99.90;;;;;;5054919;28;20106;-78
2022/06/10 08:32:10;;;;;;;24.27;5.38;;;17.40;99.90;;;;;;5049465;28;20032;-80
2022/06/10 08:34:36;;;;;;;21.90;5.68;;;17.40;99.90;;;;;;5050894;28;20040;-80
2022/06/10 08:37:03;;;;;;;25.70;6.68;;;17.40;99.90;;;;;;5056300;28;20020;-79
2022/06/10 08:39:29;;;;;;;25.15;6.10;;;17.40;99.90;;;;;;5052732;28;20085;-77
2022/06/10 08:42:13;;;;;;;22.98;5.45;;;17.40;99.90;;;;;;5052678;28;20032;-79
2022/06/10 08:44:52;;;;;;;25.42;6.47;;;17.40;99.90;;;;;;5070886;28;20070;-75
2022/06/10 08:47:44;;;;;;;26.63;6.53;;;17.50;99.90;;;;;;5071011;28;20111;-79
2022/06/10 08:50:28;;;;;;;26.13;6.30;;;17.60;99.90;;;;;;5049439;28;20771;-79
2022/06/10 08:53:41;;;;;;;31.33;5.45;;;17.70;99.90;;;;;;5044523;28;20029;-81
2022/06/10 08:56:16;;;;;;;20.13;5.53;;;17.70;99.90;;;;;;5046146;28;20025;-79
2022/06/10 08:58:47;;;;;;;25.80;6.70;;;17.70;99.90;;;;;;5046336;28;20037;-81
2022/06/10 09:01:17;;;;;;;22.13;5.78;;;17.80;99.90;;;;;;5047924;28;20020;-89
2022/06/10 09:04:14;;;;;;;22.95;5.60;;;17.70;99.90;;;;;;5032498;28;20062;-81
2022/06/10 09:06:52;;;;;;;23.63;5.88;;;17.70;99.90;;;;;;5048943;28;20084;-78
2022/06/10 09:09:22;;;;;;;22.52;5.30;;;17.60;99.90;;;;;;5056430;28;20016;-79
2022/06/10 09:11:53;;;;;;;22.77;5.82;;;17.70;99.90;;;;;;5054426;28;20021;-78
2022/06/10 09:14:24;;;;;;;23.80;5.32;;;17.60;99.90;;;;;;5048317;28;20079;-81
2022/06/10 09:17:03;;;;;;;19.77;5.80;;;17.50;99.90;;;;;;5045550;28;20511;-80
2022/06/10 09:19:54;;;;;;;21.08;5.32;;;17.50;99.90;;;;;;5024387;28;20124;-88
2022/06/10 09:22:22;;;;;;;20.80;5.68;;;17.60;99.90;;;;;;5048450;28;20025;-81
2022/06/10 09:25:12;;;;;;;21.52;6.03;;;17.60;99.90;;;;;;5045052;28;20039;-79
2022/06/10 09:27:44;;;;;;;25.67;6.07;;;17.60;99.90;;;;;;5052148;28;20159;-81
2022/06/10 09:30:15;;;;;;;23.98;5.82;;;17.70;99.90;;;;;;5022776;28;20068;-80
2022/06/10 09:32:50;;;;;;;24.55;6.15;;;17.90;99.90;;;;;;5036411;28;20021;-82
2022/06/10 09:35:26;;;;;;;23.42;6.43;;;17.90;99.90;;;;;;5053807;28;20120;-80
2022/06/10 09:38:15;;;;;;;22.92;5.95;;;18.00;99.90;;;;;;5051470;28;20584;-79
2022/06/10 09:40:57;;;;;;;;;;;17.90;99.90;;;;;;5045902;28;20021;-77
2022/06/10 09:43:22;;;;;;;27.60;5.70;;;17.80;99.90;;;;;;5052098;28;19904;-79
2022/06/10 09:46:06;;;;;;;21.25;5.00;;;17.60;99.90;;;;;;5034615;28;20037;-79
2022/06/10 09:48:38;;;;;;;23.80;5.95;;;17.60;99.90;;;;;;5031783;28;20025;-81
2022/06/10 09:51:25;;;;;;;21.20;5.55;;;17.90;99.90;;;;;;5041632;28;20029;-79
2022/06/10 09:54:12;;;;;;;21.60;6.32;;;18.10;99.90;;;;;;5042966;28;20147;-80
2022/06/10 09:56:50;;;;;;;23.70;6.18;;;18.30;99.90;;;;;;5038356;28;20029;-77
2022/06/10 09:59:30;;;;;;;19.25;5.95;;;18.30;99.90;;;;;;5050095;28;20475;-82
2022/06/10 10:02:02;;;;;;;18.55;5.13;;;18.40;99.90;;;;;;5050430;28;20144;-80
2022/06/10 10:04:36;;;;;;;20.15;5.35;;;18.30;99.90;;;;;;5056046;28;20479;-78
2022/06/10 10:07:57;;;;;;;21.88;5.28;;;18.10;99.90;;;;;;5027096;28;20395;-80
2022/06/10 10:10:23;;;;;;;20.58;5.32;;;18.00;99.90;;;;;;5028470;28;20170;-80
2022/06/10 10:13:10;;;;;;;21.17;5.85;;;17.90;99.90;;;;;;5054942;28;20766;-79
2022/06/10 10:15:49;;;;;;;20.95;5.68;;;17.80;99.90;;;;;;5049652;28;20044;-81
2022/06/10 10:18:20;;;;;;;15.73;5.20;;;18.00;99.90;;;;;;5041423;28;20057;-83
2022/06/10 10:20:51;;;;;;;18.45;4.80;;;18.20;99.90;;;;;;5049435;28;20050;-79
2022/06/10 10:23:25;;;;;;;21.98;5.13;;;18.40;99.90;;;;;;5055940;28;20028;-80
2022/06/10 10:25:51;;;;;;;19.17;4.80;;;18.60;99.90;;;;;;5072279;28;20040;-82
2022/06/10 10:28:28;;;;;;;22.27;5.28;;;18.80;99.90;;;;;;5057504;28;20109;-78
2022/06/10 10:31:12;;;;;;;22.27;4.97;;;18.70;99.90;;;;;;5043550;28;20021;-81
2022/06/10 10:33:38;;;;;;;19.45;5.55;;;18.60;99.90;;;;;;5048342;28;20037;-79
2022/06/10 10:36:15;;;;;;;21.10;5.13;;;18.40;99.90;;;;;;5049763;28;20086;-78
2022/06/10 10:38:43;;;;;;;16.65;5.47;;;18.40;99.90;;;;;;5046716;28;20036;-88
2022/06/10 10:41:36;;;;;;;18.75;5.25;;;18.40;99.90;;;;;;5049329;28;20772;-84
2022/06/10 10:44:08;;;;;;;19.13;5.13;;;18.70;99.90;;;;;;5037563;28;20065;-80
2022/06/10 10:46:36;;;;;;;21.85;4.85;;;19.10;99.90;;;;;;5059028;28;20021;-85
2022/06/10 10:49:26;;;;;;;22.27;5.53;;;19.50;99.90;;;;;;5048125;28;20111;-83
2022/06/10 10:51:53;;;;;;;19.23;5.32;;;19.40;99.90;;;;;;5048512;28;20021;-83
2022/06/10 10:54:22;;;;;;;19.75;5.38;;;19.60;99.90;;;;;;5048060;28;20029;-78
2022/06/10 10:56:49;;;;;;;21.47;4.97;;;19.60;99.90;;;;;;5024883;28;20029;-79
2022/06/10 10:59:32;;;;;;;19.67;4.95;;;19.50;99.50;;;;;;5049341;28;20265;-86
2022/06/10 11:01:58;;;;;;;16.25;4.10;;;19.40;99.90;;;;;;5025465;28;20029;-81
2022/06/10 11:04:26;;;;;;;18.42;4.82;;;19.50;99.90;;;;;;5031626;28;20179;-78
2022/06/10 11:07:19;;;;;;;19.25;5.68;;;19.80;99.90;;;;;;5047808;28;20025;-80
2022/06/10 11:09:47;;;;;;;22.23;5.97;;;19.70;99.00;;;;;;5045357;28;20079;-82
2022/06/10 11:12:19;;;;;;;18.95;4.78;;;19.20;98.90;;;;;;5059842;28;20021;-77
2022/06/10 11:14:49;;;;;;;22.42;5.45;;;19.00;99.90;;;;;;5048503;28;20071;-80
2022/06/10 11:17:17;;;;;;;;;;;19.30;99.90;;;;;;5056082;28;20090;-79
2022/06/10 11:19:45;;;;;;;21.67;5.45;;;20.20;98.40;;;;;;5072396;28;19908;-79
2022/06/10 11:22:23;;;;;;;21.02;5.78;;;20.00;99.60;;;;;;5061920;28;20068;-85
2022/06/10 11:25:02;;;;;;;19.40;5.03;;;19.90;99.30;;;;;;5058360;28;20369;-82
2022/06/10 11:27:32;;;;;;;19.57;5.33;;;19.70;99.50;;;;;;5048359;28;20052;-79
2022/06/10 11:30:00;;;;;;;20.48;5.07;;;20.10;99.10;;;;;;5062959;28;20312;-80
2022/06/10 11:32:48;;;;;;;24.17;5.72;;;19.90;98.60;;;;;;5034843;28;20036;-81
2022/06/10 11:35:34;;;;;;;17.58;4.88;;;19.80;99.00;;;;;;5031265;28;20029;-80
2022/06/10 11:38:26;;;;;;;20.35;5.10;;;19.40;99.50;;;;;;5050085;28;20100;-80
2022/06/10 11:40:55;;;;;;;21.08;5.47;;;19.30;99.90;;;;;;5032198;28;20029;-84
2022/06/10 11:43:27;;;;;;;27.42;5.38;;;19.10;99.90;;;;;;5058780;28;20025;-79
2022/06/10 11:45:58;;;;;;;23.75;5.72;;;19.10;99.90;;;;;;5030911;28;20039;-82
2022/06/10 11:48:27;;;;;;;22.38;5.75;;;19.00;99.90;;;;;;5051379;28;20035;-82
2022/06/10 11:51:04;;;;;;;19.77;5.17;;;18.90;99.90;;;;;;5057519;28;20466;-79
2022/06/10 11:53:42;;;;;;;21.77;5.28;;;19.00;99.90;;;;;;5055488;28;20032;-80
2022/06/10 11:59:45;;;;;;;22.10;5.03;;;19.30;99.90;;;;;;5041879;28;20642;-82
2022/06/10 12:02:35;;;;;;;23.48;5.40;;;19.50;99.90;;;;;;5054543;28;20044;-80
2022/06/10 12:05:22;;;;;;;22.80;4.75;;;19.60;99.90;;;;;;5026606;28;20048;-77
2022/06/10 12:07:55;;;;;;;23.70;5.47;;;19.70;99.60;;;;;;5058018;28;20033;-80
2022/06/10 12:10:25;;;;;;;23.60;5.97;;;19.60;99.90;;;;;;5059642;28;20040;-78
2022/06/10 12:12:53;;;;;;;25.08;5.00;;;19.60;99.90;;;;;;5054439;28;20024;-76
2022/06/10 12:15:22;;;;;;;22.88;5.05;;;19.50;99.90;;;;;;5059399;28;20028;-81
2022/06/10 12:17:53;;;;;;;24.70;5.13;;;19.20;99.90;;;;;;5026026;28;20506;-79
2022/06/10 12:20:43;;;;;;;23.50;5.63;;;19.10;99.90;;;;;;5041058;28;20036;-80
2022/06/10 12:23:16;;;;;;;24.13;5.20;;;18.90;99.90;;;;;;5050606;28;20020;-79
2022/06/10 12:25:53;;;;;;;21.80;4.97;;;19.00;99.90;;;;;;5049982;28;20045;-79
2022/06/10 12:28:22;;;;;;;23.08;4.95;;;18.90;99.90;;;;;;5024320;28;20028;-78
2022/06/10 12:31:00;;;;;;;20.65;5.22;;;18.70;99.90;;;;;;5057267;28;20451;-83
2022/06/10 12:33:44;;;;;;;20.58;5.00;;;18.60;99.90;;;;;;5052755;28;20029;-79
2022/06/10 12:36:18;;;;;;;19.00;4.75;;;19.00;99.90;;;;;;5044796;28;20075;-78
2022/06/10 12:38:46;;;;;;;20.63;5.53;;;19.00;99.90;;;;;;5025232;28;20115;-80
2022/06/10 12:41:31;;;;;;;17.90;4.55;;;19.10;99.90;;;;;;5061865;28;20016;-78
2022/06/10 12:44:04;;;;;;;22.27;4.38;;;19.20;99.90;;;;;;5040915;28;20021;-80
2022/06/10 12:46:45;;;;;;;18.10;5.38;;;19.10;99.10;;;;;;5057268;28;20625;-77
2022/06/10 12:49:35;;;;;;;20.58;5.20;;;19.00;99.80;;;;;;5033335;28;20882;-79
2022/06/10 12:52:18;;;;;;;22.42;4.97;;;18.80;99.90;;;;;;5053956;28;20055;-76
2022/06/10 12:54:56;;;;;;;19.15;4.95;;;18.60;99.70;;;;;;5051994;28;20032;-79
2022/06/10 12:57:22;;;;;;;24.27;5.30;;;18.60;99.90;;;;;;5052620;28;20033;-76
2022/06/10 12:59:49;;;;;;;24.60;5.50;;;18.70;99.90;;;;;;5038709;28;20024;-82
2022/06/10 13:02:34;;;;;;;20.90;4.97;;;18.90;99.90;;;;;;5032089;28;20560;-81
2022/06/10 13:05:23;;;;;;;24.80;5.57;;;19.10;99.90;;;;;;5055641;28;20091;-77
2022/06/10 13:07:50;;;;;;;23.33;5.18;;;19.20;99.90;;;;;;5046728;28;20911;-77
2022/06/10 13:10:41;;;;;;;24.55;4.97;;;19.40;99.30;;;;;;5054791;28;20462;-78
2022/06/10 13:13:23;;;;;;;25.95;5.70;;;19.40;99.90;;;;;;5045517;28;20021;-79
2022/06/10 13:16:24;;;;;;;23.00;4.97;;;19.50;99.50;;;;;;5032599;28;20029;-87
2022/06/10 13:18:58;;;;;;;18.70;4.90;;;19.70;99.70;;;;;;5039643;28;20046;-79
2022/06/10 13:21:30;;;;;;;23.85;5.32;;;19.40;98.10;;;;;;5040526;28;20795;-81
2022/06/10 13:23:59;;;;;;;24.88;5.18;;;19.30;99.40;;;;;;5035220;28;20028;-78